sensor_id;sensor_type;location;lat;lon;timestamp;P1;durP1;ratioP1;P2;durP2;ratioP2
27265;SDS011;14766;51.380;13.762;2022-11-06T00:01:46;17.67;;;8.23;;
27265;SDS011;14766;51.380;13.762;2022-11-06T00:04:14;19.08;;;9.82;;
27265;SDS011;14766;51.380;13.762;2022-11-06T00:06:41;19.08;;;9.65;;
27265;SDS011;14766;51.380;13.762;2022-11-06T00:09:18;11.15;;;6.80;;
27265;SDS011;14766;51.380;13.762;2022-11-06T00:11:48;10.95;;;5.95;;
27265;SDS011;14766;51.380;13.762;2022-11-06T00:14:15;9.45;;;5.60;;
27265;SDS011;14766;51.380;13.762;2022-11-06T00:16:45;10.35;;;4.97;;
27265;SDS011;14766;51.380;13.762;2022-11-06T00:19:14;7.38;;;4.45;;
27265;SDS011;14766;51.380;13.762;2022-11-06T00:21:42;8.60;;;4.50;;
27265;SDS011;14766;51.380;13.762;2022-11-06T00:24:10;8.07;;;4.20;;
27265;SDS011;14766;51.380;13.762;2022-11-06T00:26:38;6.53;;;4.68;;
27265;SDS011;14766;51.380;13.762;2022-11-06T00:29:07;7.57;;;4.50;;
27265;SDS011;14766;51.380;13.762;2022-11-06T00:31:37;5.57;;;4.22;;
27265;SDS011;14766;51.380;13.762;2022-11-06T00:34:05;9.68;;;5.25;;
27265;SDS011;14766;51.380;13.762;2022-11-06T00:36:33;8.98;;;5.30;;
27265;SDS011;14766;51.380;13.762;2022-11-06T00:39:01;10.25;;;5.40;;
27265;SDS011;14766;51.380;13.762;2022-11-06T00:41:28;9.10;;;4.95;;
27265;SDS011;14766;51.380;13.762;2022-11-06T00:43:57;10.38;;;4.45;;
27265;SDS011;14766;51.380;13.762;2022-11-06T00:46:25;7.72;;;4.57;;
27265;SDS011;14766;51.380;13.762;2022-11-06T00:48:53;10.57;;;4.45;;
27265;SDS011;14766;51.380;13.762;2022-11-06T00:51:25;5.13;;;3.75;;
27265;SDS011;14766;51.380;13.762;2022-11-06T00:54:03;8.32;;;4.18;;
27265;SDS011;14766;51.380;13.762;2022-11-06T00:56:32;11.65;;;4.40;;
27265;SDS011;14766;51.380;13.762;2022-11-06T00:59:00;6.22;;;4.45;;
27265;SDS011;14766;51.380;13.762;2022-11-06T01:01:30;5.55;;;3.92;;
27265;SDS011;14766;51.380;13.762;2022-11-06T01:04:03;9.32;;;5.68;;
27265;SDS011;14766;51.380;13.762;2022-11-06T01:06:32;16.15;;;9.63;;
27265;SDS011;14766;51.380;13.762;2022-11-06T01:09:03;16.98;;;10.02;;
27265;SDS011;14766;51.380;13.762;2022-11-06T01:11:33;12.60;;;7.90;;
27265;SDS011;14766;51.380;13.762;2022-11-06T01:14:25;16.50;;;10.93;;
27265;SDS011;14766;51.380;13.762;2022-11-06T01:16:53;12.18;;;7.45;;
27265;SDS011;14766;51.380;13.762;2022-11-06T01:19:21;8.50;;;5.13;;
27265;SDS011;14766;51.380;13.762;2022-11-06T01:21:49;6.25;;;3.92;;
27265;SDS011;14766;51.380;13.762;2022-11-06T01:24:22;6.82;;;3.63;;
27265;SDS011;14766;51.380;13.762;2022-11-06T01:26:51;6.18;;;3.85;;
27265;SDS011;14766;51.380;13.762;2022-11-06T01:29:39;8.52;;;5.15;;
27265;SDS011;14766;51.380;13.762;2022-11-06T01:32:06;10.05;;;6.22;;
27265;SDS011;14766;51.380;13.762;2022-11-06T01:34:33;10.43;;;6.53;;
27265;SDS011;14766;51.380;13.762;2022-11-06T01:37:00;9.13;;;5.75;;
27265;SDS011;14766;51.380;13.762;2022-11-06T01:39:27;10.43;;;5.38;;
27265;SDS011;14766;51.380;13.762;2022-11-06T01:41:54;6.63;;;3.90;;
27265;SDS011;14766;51.380;13.762;2022-11-06T01:47:01;6.38;;;3.70;;
27265;SDS011;14766;51.380;13.762;2022-11-06T01:49:41;7.10;;;4.35;;
27265;SDS011;14766;51.380;13.762;2022-11-06T01:52:10;6.57;;;3.60;;
27265;SDS011;14766;51.380;13.762;2022-11-06T01:54:40;6.35;;;3.60;;
27265;SDS011;14766;51.380;13.762;2022-11-06T01:57:11;7.70;;;3.88;;
27265;SDS011;14766;51.380;13.762;2022-11-06T01:59:39;4.82;;;3.30;;
27265;SDS011;14766;51.380;13.762;2022-11-06T02:02:09;5.65;;;3.35;;
27265;SDS011;14766;51.380;13.762;2022-11-06T02:04:37;5.43;;;3.53;;
27265;SDS011;14766;51.380;13.762;2022-11-06T02:07:08;5.22;;;3.22;;
27265;SDS011;14766;51.380;13.762;2022-11-06T02:09:37;6.32;;;3.20;;
27265;SDS011;14766;51.380;13.762;2022-11-06T02:14:50;5.97;;;3.05;;
27265;SDS011;14766;51.380;13.762;2022-11-06T02:17:33;4.47;;;3.10;;
27265;SDS011;14766;51.380;13.762;2022-11-06T02:20:19;6.00;;;3.40;;
27265;SDS011;14766;51.380;13.762;2022-11-06T02:23:02;5.63;;;3.28;;
27265;SDS011;14766;51.380;13.762;2022-11-06T02:25:42;7.87;;;3.37;;
27265;SDS011;14766;51.380;13.762;2022-11-06T02:31:36;4.75;;;3.08;;
27265;SDS011;14766;51.380;13.762;2022-11-06T02:34:10;5.57;;;3.30;;
27265;SDS011;14766;51.380;13.762;2022-11-06T02:36:46;4.25;;;3.22;;
27265;SDS011;14766;51.380;13.762;2022-11-06T02:39:19;4.75;;;3.40;;
27265;SDS011;14766;51.380;13.762;2022-11-06T02:41:49;6.10;;;3.65;;
27265;SDS011;14766;51.380;13.762;2022-11-06T02:44:21;5.05;;;3.50;;
27265;SDS011;14766;51.380;13.762;2022-11-06T02:46:52;6.18;;;3.80;;
27265;SDS011;14766;51.380;13.762;2022-11-06T02:49:40;4.28;;;3.20;;
27265;SDS011;14766;51.380;13.762;2022-11-06T02:52:10;4.35;;;3.00;;
27265;SDS011;14766;51.380;13.762;2022-11-06T02:54:43;6.50;;;3.55;;
27265;SDS011;14766;51.380;13.762;2022-11-06T02:57:15;5.80;;;3.75;;
27265;SDS011;14766;51.380;13.762;2022-11-06T02:59:50;5.18;;;3.85;;
27265;SDS011;14766;51.380;13.762;2022-11-06T03:02:29;6.78;;;4.10;;
27265;SDS011;14766;51.380;13.762;2022-11-06T03:05:12;5.30;;;3.65;;
27265;SDS011;14766;51.380;13.762;2022-11-06T03:10:33;11.25;;;5.25;;
27265;SDS011;14766;51.380;13.762;2022-11-06T03:13:31;8.57;;;5.15;;
27265;SDS011;14766;51.380;13.762;2022-11-06T03:16:07;8.90;;;5.18;;
27265;SDS011;14766;51.380;13.762;2022-11-06T03:24:26;7.72;;;4.78;;
27265;SDS011;14766;51.380;13.762;2022-11-06T03:27:01;6.80;;;4.07;;
27265;SDS011;14766;51.380;13.762;2022-11-06T03:29:42;7.72;;;4.35;;
27265;SDS011;14766;51.380;13.762;2022-11-06T03:32:29;7.93;;;4.85;;
27265;SDS011;14766;51.380;13.762;2022-11-06T03:35:43;7.07;;;4.22;;
27265;SDS011;14766;51.380;13.762;2022-11-06T03:38:06;5.35;;;3.80;;
27265;SDS011;14766;51.380;13.762;2022-11-06T03:40:52;6.53;;;4.22;;
27265;SDS011;14766;51.380;13.762;2022-11-06T03:43:23;6.30;;;4.28;;
27265;SDS011;14766;51.380;13.762;2022-11-06T03:45:55;5.35;;;4.22;;
27265;SDS011;14766;51.380;13.762;2022-11-06T03:48:45;8.10;;;4.00;;
27265;SDS011;14766;51.380;13.762;2022-11-06T03:51:21;6.63;;;4.38;;
27265;SDS011;14766;51.380;13.762;2022-11-06T03:53:57;6.75;;;3.75;;
27265;SDS011;14766;51.380;13.762;2022-11-06T03:56:31;6.85;;;4.20;;
27265;SDS011;14766;51.380;13.762;2022-11-06T03:59:09;6.18;;;4.15;;
27265;SDS011;14766;51.380;13.762;2022-11-06T04:01:39;6.97;;;4.47;;
27265;SDS011;14766;51.380;13.762;2022-11-06T04:04:15;5.90;;;4.00;;
27265;SDS011;14766;51.380;13.762;2022-11-06T04:09:19;5.35;;;4.15;;
27265;SDS011;14766;51.380;13.762;2022-11-06T04:12:08;7.88;;;4.53;;
27265;SDS011;14766;51.380;13.762;2022-11-06T04:14:57;5.35;;;4.00;;
27265;SDS011;14766;51.380;13.762;2022-11-06T04:17:25;7.53;;;4.22;;
27265;SDS011;14766;51.380;13.762;2022-11-06T04:19:56;7.68;;;4.10;;
27265;SDS011;14766;51.380;13.762;2022-11-06T04:30:47;7.13;;;4.05;;
27265;SDS011;14766;51.380;13.762;2022-11-06T04:39:00;8.18;;;3.97;;
27265;SDS011;14766;51.380;13.762;2022-11-06T04:46:53;4.35;;;3.92;;
27265;SDS011;14766;51.380;13.762;2022-11-06T04:49:25;5.70;;;3.90;;
27265;SDS011;14766;51.380;13.762;2022-11-06T04:51:55;5.45;;;3.90;;
27265;SDS011;14766;51.380;13.762;2022-11-06T04:54:23;5.18;;;3.38;;
27265;SDS011;14766;51.380;13.762;2022-11-06T04:56:51;4.20;;;3.60;;
27265;SDS011;14766;51.380;13.762;2022-11-06T04:59:25;6.72;;;3.88;;
27265;SDS011;14766;51.380;13.762;2022-11-06T05:01:53;5.78;;;4.07;;
27265;SDS011;14766;51.380;13.762;2022-11-06T05:04:20;5.85;;;3.70;;
27265;SDS011;14766;51.380;13.762;2022-11-06T05:06:47;4.57;;;3.35;;
27265;SDS011;14766;51.380;13.762;2022-11-06T05:09:14;4.95;;;3.40;;
27265;SDS011;14766;51.380;13.762;2022-11-06T05:11:40;4.82;;;3.38;;
27265;SDS011;14766;51.380;13.762;2022-11-06T05:14:09;5.53;;;3.60;;
27265;SDS011;14766;51.380;13.762;2022-11-06T05:16:37;5.28;;;3.35;;
27265;SDS011;14766;51.380;13.762;2022-11-06T05:19:04;5.28;;;3.30;;
27265;SDS011;14766;51.380;13.762;2022-11-06T05:21:31;4.60;;;3.13;;
27265;SDS011;14766;51.380;13.762;2022-11-06T05:24:17;6.33;;;3.40;;
27265;SDS011;14766;51.380;13.762;2022-11-06T05:26:44;5.47;;;3.58;;
27265;SDS011;14766;51.380;13.762;2022-11-06T05:29:11;5.03;;;3.75;;
27265;SDS011;14766;51.380;13.762;2022-11-06T05:31:38;7.65;;;4.20;;
27265;SDS011;14766;51.380;13.762;2022-11-06T05:34:06;6.50;;;4.30;;
27265;SDS011;14766;51.380;13.762;2022-11-06T05:36:33;7.32;;;4.30;;
27265;SDS011;14766;51.380;13.762;2022-11-06T05:39:00;5.88;;;3.53;;
27265;SDS011;14766;51.380;13.762;2022-11-06T05:41:27;4.55;;;3.42;;
27265;SDS011;14766;51.380;13.762;2022-11-06T05:43:55;6.90;;;3.70;;
27265;SDS011;14766;51.380;13.762;2022-11-06T05:46:23;5.80;;;3.65;;
27265;SDS011;14766;51.380;13.762;2022-11-06T05:49:11;4.65;;;3.38;;
27265;SDS011;14766;51.380;13.762;2022-11-06T05:51:38;5.82;;;3.78;;
27265;SDS011;14766;51.380;13.762;2022-11-06T05:54:06;4.65;;;3.90;;
27265;SDS011;14766;51.380;13.762;2022-11-06T05:56:33;4.50;;;3.58;;
27265;SDS011;14766;51.380;13.762;2022-11-06T05:59:00;6.03;;;3.58;;
27265;SDS011;14766;51.380;13.762;2022-11-06T06:01:27;8.52;;;4.80;;
27265;SDS011;14766;51.380;13.762;2022-11-06T06:03:54;10.82;;;8.07;;
27265;SDS011;14766;51.380;13.762;2022-11-06T06:06:21;7.97;;;5.88;;
27265;SDS011;14766;51.380;13.762;2022-11-06T06:08:48;8.32;;;5.55;;
27265;SDS011;14766;51.380;13.762;2022-11-06T06:11:15;5.93;;;4.57;;
27265;SDS011;14766;51.380;13.762;2022-11-06T06:13:42;8.27;;;5.45;;
27265;SDS011;14766;51.380;13.762;2022-11-06T06:16:09;13.77;;;8.32;;
27265;SDS011;14766;51.380;13.762;2022-11-06T06:18:37;25.83;;;14.13;;
27265;SDS011;14766;51.380;13.762;2022-11-06T06:21:04;31.38;;;19.88;;
27265;SDS011;14766;51.380;13.762;2022-11-06T06:23:31;20.00;;;14.35;;
27265;SDS011;14766;51.380;13.762;2022-11-06T06:25:58;16.33;;;10.63;;
27265;SDS011;14766;51.380;13.762;2022-11-06T06:28:25;16.85;;;10.40;;
27265;SDS011;14766;51.380;13.762;2022-11-06T06:30:52;13.32;;;9.60;;
27265;SDS011;14766;51.380;13.762;2022-11-06T06:33:26;11.40;;;6.88;;
27265;SDS011;14766;51.380;13.762;2022-11-06T06:35:54;5.93;;;5.18;;
27265;SDS011;14766;51.380;13.762;2022-11-06T06:38:21;6.57;;;4.15;;
27265;SDS011;14766;51.380;13.762;2022-11-06T06:40:49;6.28;;;4.40;;
27265;SDS011;14766;51.380;13.762;2022-11-06T06:43:16;6.03;;;4.13;;
27265;SDS011;14766;51.380;13.762;2022-11-06T06:45:43;6.35;;;3.70;;
27265;SDS011;14766;51.380;13.762;2022-11-06T06:48:10;6.60;;;3.80;;
27265;SDS011;14766;51.380;13.762;2022-11-06T06:50:38;6.95;;;3.50;;
27265;SDS011;14766;51.380;13.762;2022-11-06T06:53:05;5.25;;;3.13;;
27265;SDS011;14766;51.380;13.762;2022-11-06T06:55:32;4.28;;;3.28;;
27265;SDS011;14766;51.380;13.762;2022-11-06T06:58:00;4.72;;;3.05;;
27265;SDS011;14766;51.380;13.762;2022-11-06T07:00:27;4.30;;;3.42;;
27265;SDS011;14766;51.380;13.762;2022-11-06T07:02:55;4.60;;;3.03;;
27265;SDS011;14766;51.380;13.762;2022-11-06T07:05:22;5.35;;;3.28;;
27265;SDS011;14766;51.380;13.762;2022-11-06T07:07:49;6.20;;;3.50;;
27265;SDS011;14766;51.380;13.762;2022-11-06T07:10:16;4.70;;;3.55;;
27265;SDS011;14766;51.380;13.762;2022-11-06T07:12:43;5.78;;;3.42;;
27265;SDS011;14766;51.380;13.762;2022-11-06T07:15:10;4.82;;;3.40;;
27265;SDS011;14766;51.380;13.762;2022-11-06T07:17:37;6.43;;;3.72;;
27265;SDS011;14766;51.380;13.762;2022-11-06T07:20:06;4.68;;;3.30;;
27265;SDS011;14766;51.380;13.762;2022-11-06T07:22:34;5.97;;;3.50;;
27265;SDS011;14766;51.380;13.762;2022-11-06T07:25:03;6.30;;;3.80;;
27265;SDS011;14766;51.380;13.762;2022-11-06T07:27:31;6.13;;;3.55;;
27265;SDS011;14766;51.380;13.762;2022-11-06T07:29:59;4.82;;;3.50;;
27265;SDS011;14766;51.380;13.762;2022-11-06T07:32:26;5.88;;;3.60;;
27265;SDS011;14766;51.380;13.762;2022-11-06T07:34:53;4.35;;;3.17;;
27265;SDS011;14766;51.380;13.762;2022-11-06T07:37:20;4.28;;;2.92;;
27265;SDS011;14766;51.380;13.762;2022-11-06T07:39:48;7.13;;;3.47;;
27265;SDS011;14766;51.380;13.762;2022-11-06T07:42:18;3.38;;;2.65;;
27265;SDS011;14766;51.380;13.762;2022-11-06T07:44:59;4.45;;;3.22;;
27265;SDS011;14766;51.380;13.762;2022-11-06T07:47:28;3.75;;;2.92;;
27265;SDS011;14766;51.380;13.762;2022-11-06T07:49:56;5.07;;;2.92;;
27265;SDS011;14766;51.380;13.762;2022-11-06T07:52:23;3.60;;;2.58;;
27265;SDS011;14766;51.380;13.762;2022-11-06T07:54:50;3.90;;;2.50;;
27265;SDS011;14766;51.380;13.762;2022-11-06T07:57:17;3.95;;;2.38;;
27265;SDS011;14766;51.380;13.762;2022-11-06T07:59:44;2.78;;;2.30;;
27265;SDS011;14766;51.380;13.762;2022-11-06T08:02:13;2.55;;;2.35;;
27265;SDS011;14766;51.380;13.762;2022-11-06T08:04:41;4.90;;;2.60;;
27265;SDS011;14766;51.380;13.762;2022-11-06T08:07:08;4.13;;;2.42;;
27265;SDS011;14766;51.380;13.762;2022-11-06T08:09:35;4.03;;;2.40;;
27265;SDS011;14766;51.380;13.762;2022-11-06T08:12:02;2.22;;;2.03;;
27265;SDS011;14766;51.380;13.762;2022-11-06T08:14:29;2.80;;;2.50;;
27265;SDS011;14766;51.380;13.762;2022-11-06T08:16:56;5.05;;;2.85;;
27265;SDS011;14766;51.380;13.762;2022-11-06T08:19:23;3.22;;;2.58;;
27265;SDS011;14766;51.380;13.762;2022-11-06T08:21:51;4.43;;;2.60;;
27265;SDS011;14766;51.380;13.762;2022-11-06T08:24:18;4.03;;;2.80;;
27265;SDS011;14766;51.380;13.762;2022-11-06T08:26:47;4.47;;;2.70;;
27265;SDS011;14766;51.380;13.762;2022-11-06T08:29:14;4.05;;;2.88;;
27265;SDS011;14766;51.380;13.762;2022-11-06T08:31:41;5.72;;;3.10;;
27265;SDS011;14766;51.380;13.762;2022-11-06T08:34:09;5.70;;;3.55;;
27265;SDS011;14766;51.380;13.762;2022-11-06T08:36:37;5.35;;;3.42;;
27265;SDS011;14766;51.380;13.762;2022-11-06T08:39:10;4.30;;;2.92;;
27265;SDS011;14766;51.380;13.762;2022-11-06T08:41:38;3.95;;;2.83;;
27265;SDS011;14766;51.380;13.762;2022-11-06T08:44:06;3.13;;;2.83;;
27265;SDS011;14766;51.380;13.762;2022-11-06T08:46:34;4.47;;;3.40;;
27265;SDS011;14766;51.380;13.762;2022-11-06T08:49:01;3.05;;;2.20;;
27265;SDS011;14766;51.380;13.762;2022-11-06T08:51:28;7.32;;;4.65;;
27265;SDS011;14766;51.380;13.762;2022-11-06T08:53:59;47.85;;;22.33;;
27265;SDS011;14766;51.380;13.762;2022-11-06T08:56:26;34.25;;;18.05;;
27265;SDS011;14766;51.380;13.762;2022-11-06T08:58:53;12.70;;;8.48;;
27265;SDS011;14766;51.380;13.762;2022-11-06T09:01:21;4.10;;;3.50;;
27265;SDS011;14766;51.380;13.762;2022-11-06T09:03:49;3.90;;;3.03;;
27265;SDS011;14766;51.380;13.762;2022-11-06T09:06:16;3.88;;;3.45;;
27265;SDS011;14766;51.380;13.762;2022-11-06T09:08:43;3.58;;;3.20;;
27265;SDS011;14766;51.380;13.762;2022-11-06T09:11:10;4.10;;;2.90;;
27265;SDS011;14766;51.380;13.762;2022-11-06T09:13:38;3.65;;;2.80;;
27265;SDS011;14766;51.380;13.762;2022-11-06T09:16:07;3.72;;;2.83;;
27265;SDS011;14766;51.380;13.762;2022-11-06T09:18:41;3.30;;;2.55;;
27265;SDS011;14766;51.380;13.762;2022-11-06T09:21:09;4.57;;;3.15;;
27265;SDS011;14766;51.380;13.762;2022-11-06T09:23:36;3.97;;;2.63;;
27265;SDS011;14766;51.380;13.762;2022-11-06T09:26:06;4.35;;;2.92;;
27265;SDS011;14766;51.380;13.762;2022-11-06T09:28:33;4.13;;;3.22;;
27265;SDS011;14766;51.380;13.762;2022-11-06T09:31:00;4.25;;;3.45;;
27265;SDS011;14766;51.380;13.762;2022-11-06T09:33:29;3.45;;;2.80;;
27265;SDS011;14766;51.380;13.762;2022-11-06T09:35:56;4.40;;;3.22;;
27265;SDS011;14766;51.380;13.762;2022-11-06T09:38:24;4.55;;;3.40;;
27265;SDS011;14766;51.380;13.762;2022-11-06T09:40:53;4.22;;;3.45;;
27265;SDS011;14766;51.380;13.762;2022-11-06T09:46:33;3.97;;;2.95;;
27265;SDS011;14766;51.380;13.762;2022-11-06T09:57:10;5.82;;;4.18;;
27265;SDS011;14766;51.380;13.762;2022-11-06T10:00:00;9.80;;;5.88;;
27265;SDS011;14766;51.380;13.762;2022-11-06T10:02:35;6.50;;;4.93;;
27265;SDS011;14766;51.380;13.762;2022-11-06T10:07:59;6.97;;;5.63;;
27265;SDS011;14766;51.380;13.762;2022-11-06T10:13:16;7.78;;;5.70;;
27265;SDS011;14766;51.380;13.762;2022-11-06T10:24:38;4.60;;;3.17;;
27265;SDS011;14766;51.380;13.762;2022-11-06T10:27:31;3.70;;;2.80;;
27265;SDS011;14766;51.380;13.762;2022-11-06T10:32:46;3.40;;;3.03;;
27265;SDS011;14766;51.380;13.762;2022-11-06T10:35:38;4.20;;;3.10;;
27265;SDS011;14766;51.380;13.762;2022-11-06T10:38:10;3.70;;;2.78;;
27265;SDS011;14766;51.380;13.762;2022-11-06T10:40:44;3.33;;;2.70;;
27265;SDS011;14766;51.380;13.762;2022-11-06T10:48:50;3.70;;;2.85;;
27265;SDS011;14766;51.380;13.762;2022-11-06T10:51:26;3.72;;;2.75;;
27265;SDS011;14766;51.380;13.762;2022-11-06T10:59:31;3.13;;;2.70;;
27265;SDS011;14766;51.380;13.762;2022-11-06T11:01:58;3.92;;;2.97;;
27265;SDS011;14766;51.380;13.762;2022-11-06T11:04:30;3.53;;;2.80;;
27265;SDS011;14766;51.380;13.762;2022-11-06T11:07:01;3.08;;;2.75;;
27265;SDS011;14766;51.380;13.762;2022-11-06T11:09:47;3.33;;;2.80;;
27265;SDS011;14766;51.380;13.762;2022-11-06T11:12:21;3.17;;;2.83;;
27265;SDS011;14766;51.380;13.762;2022-11-06T11:17:40;3.15;;;2.85;;
27265;SDS011;14766;51.380;13.762;2022-11-06T11:25:49;2.95;;;2.65;;
27265;SDS011;14766;51.380;13.762;2022-11-06T11:30:53;3.13;;;2.67;;
27265;SDS011;14766;51.380;13.762;2022-11-06T11:33:26;3.78;;;2.90;;
27265;SDS011;14766;51.380;13.762;2022-11-06T11:35:54;4.55;;;3.42;;
27265;SDS011;14766;51.380;13.762;2022-11-06T11:38:23;4.25;;;3.10;;
27265;SDS011;14766;51.380;13.762;2022-11-06T11:40:51;6.25;;;3.03;;
27265;SDS011;14766;51.380;13.762;2022-11-06T11:44:03;3.85;;;2.60;;
27265;SDS011;14766;51.380;13.762;2022-11-06T11:46:32;3.50;;;2.60;;
27265;SDS011;14766;51.380;13.762;2022-11-06T11:48:59;3.70;;;2.70;;
27265;SDS011;14766;51.380;13.762;2022-11-06T11:54:17;5.78;;;3.33;;
27265;SDS011;14766;51.380;13.762;2022-11-06T11:56:55;2.80;;;2.38;;
27265;SDS011;14766;51.380;13.762;2022-11-06T12:05:15;3.00;;;2.60;;
27265;SDS011;14766;51.380;13.762;2022-11-06T12:07:49;3.20;;;2.70;;
27265;SDS011;14766;51.380;13.762;2022-11-06T12:10:35;3.88;;;2.70;;
27265;SDS011;14766;51.380;13.762;2022-11-06T12:13:32;3.40;;;2.67;;
27265;SDS011;14766;51.380;13.762;2022-11-06T12:16:09;2.85;;;2.35;;
27265;SDS011;14766;51.380;13.762;2022-11-06T12:18:49;4.38;;;2.80;;
27265;SDS011;14766;51.380;13.762;2022-11-06T12:21:34;3.20;;;2.50;;
27265;SDS011;14766;51.380;13.762;2022-11-06T12:24:06;3.58;;;2.65;;
27265;SDS011;14766;51.380;13.762;2022-11-06T12:26:58;4.72;;;2.60;;
27265;SDS011;14766;51.380;13.762;2022-11-06T12:43:32;2.70;;;2.20;;
27265;SDS011;14766;51.380;13.762;2022-11-06T12:46:13;3.95;;;2.30;;
27265;SDS011;14766;51.380;13.762;2022-11-06T12:49:19;3.13;;;2.00;;
27265;SDS011;14766;51.380;13.762;2022-11-06T13:14:27;3.05;;;2.42;;
27265;SDS011;14766;51.380;13.762;2022-11-06T13:22:08;3.53;;;3.00;;
27265;SDS011;14766;51.380;13.762;2022-11-06T13:24:45;2.70;;;2.15;;
27265;SDS011;14766;51.380;13.762;2022-11-06T13:30:20;2.22;;;1.80;;
27265;SDS011;14766;51.380;13.762;2022-11-06T13:35:32;2.95;;;2.28;;
27265;SDS011;14766;51.380;13.762;2022-11-06T13:38:04;3.05;;;2.03;;
27265;SDS011;14766;51.380;13.762;2022-11-06T13:40:35;4.25;;;2.45;;
27265;SDS011;14766;51.380;13.762;2022-11-06T13:45:45;2.42;;;2.03;;
27265;SDS011;14766;51.380;13.762;2022-11-06T13:54:24;4.80;;;2.47;;
27265;SDS011;14766;51.380;13.762;2022-11-06T13:57:31;2.78;;;2.10;;
27265;SDS011;14766;51.380;13.762;2022-11-06T14:11:51;4.38;;;2.80;;
27265;SDS011;14766;51.380;13.762;2022-11-06T14:22:33;2.55;;;2.10;;
27265;SDS011;14766;51.380;13.762;2022-11-06T14:36:27;3.00;;;1.95;;
27265;SDS011;14766;51.380;13.762;2022-11-06T14:39:02;2.63;;;2.05;;
27265;SDS011;14766;51.380;13.762;2022-11-06T14:44:06;3.00;;;2.33;;
27265;SDS011;14766;51.380;13.762;2022-11-06T14:46:38;2.78;;;2.47;;
27265;SDS011;14766;51.380;13.762;2022-11-06T14:49:34;4.13;;;2.83;;
27265;SDS011;14766;51.380;13.762;2022-11-06T14:52:13;3.80;;;2.83;;
27265;SDS011;14766;51.380;13.762;2022-11-06T14:57:34;5.47;;;3.45;;
27265;SDS011;14766;51.380;13.762;2022-11-06T15:00:12;6.68;;;4.50;;
27265;SDS011;14766;51.380;13.762;2022-11-06T15:02:59;5.20;;;3.83;;
27265;SDS011;14766;51.380;13.762;2022-11-06T15:05:29;6.97;;;4.70;;
27265;SDS011;14766;51.380;13.762;2022-11-06T15:07:57;8.80;;;6.13;;
27265;SDS011;14766;51.380;13.762;2022-11-06T15:13:09;9.70;;;6.10;;
27265;SDS011;14766;51.380;13.762;2022-11-06T15:15:40;8.93;;;6.47;;
27265;SDS011;14766;51.380;13.762;2022-11-06T15:18:15;10.73;;;7.57;;
27265;SDS011;14766;51.380;13.762;2022-11-06T15:20:49;11.52;;;7.15;;
27265;SDS011;14766;51.380;13.762;2022-11-06T15:23:31;9.23;;;6.43;;
27265;SDS011;14766;51.380;13.762;2022-11-06T15:31:43;12.45;;;9.68;;
27265;SDS011;14766;51.380;13.762;2022-11-06T15:34:22;13.35;;;9.52;;
27265;SDS011;14766;51.380;13.762;2022-11-06T15:37:00;12.43;;;7.75;;
27265;SDS011;14766;51.380;13.762;2022-11-06T15:39:38;11.43;;;8.63;;
27265;SDS011;14766;51.380;13.762;2022-11-06T15:42:13;13.07;;;9.77;;
27265;SDS011;14766;51.380;13.762;2022-11-06T15:44:44;14.05;;;10.50;;
27265;SDS011;14766;51.380;13.762;2022-11-06T15:55:47;13.77;;;10.68;;
27265;SDS011;14766;51.380;13.762;2022-11-06T16:00:50;13.60;;;8.85;;
27265;SDS011;14766;51.380;13.762;2022-11-06T16:03:18;11.80;;;8.00;;
27265;SDS011;14766;51.380;13.762;2022-11-06T16:05:48;13.30;;;10.10;;
27265;SDS011;14766;51.380;13.762;2022-11-06T16:08:16;12.23;;;9.38;;
27265;SDS011;14766;51.380;13.762;2022-11-06T16:10:45;12.98;;;9.70;;
27265;SDS011;14766;51.380;13.762;2022-11-06T16:13:17;13.00;;;9.57;;
27265;SDS011;14766;51.380;13.762;2022-11-06T16:23:39;10.98;;;7.88;;
27265;SDS011;14766;51.380;13.762;2022-11-06T16:26:08;11.10;;;7.15;;
27265;SDS011;14766;51.380;13.762;2022-11-06T16:28:42;8.57;;;6.45;;
27265;SDS011;14766;51.380;13.762;2022-11-06T16:31:14;10.35;;;7.55;;
27265;SDS011;14766;51.380;13.762;2022-11-06T16:36:24;9.32;;;6.97;;
27265;SDS011;14766;51.380;13.762;2022-11-06T16:38:53;9.32;;;6.68;;
27265;SDS011;14766;51.380;13.762;2022-11-06T16:41:35;10.75;;;7.70;;
27265;SDS011;14766;51.380;13.762;2022-11-06T16:44:27;10.38;;;6.82;;
27265;SDS011;14766;51.380;13.762;2022-11-06T16:49:37;10.05;;;7.53;;
27265;SDS011;14766;51.380;13.762;2022-11-06T16:52:18;10.70;;;8.02;;
27265;SDS011;14766;51.380;13.762;2022-11-06T16:55:32;11.55;;;8.15;;
27265;SDS011;14766;51.380;13.762;2022-11-06T16:57:47;10.18;;;8.25;;
27265;SDS011;14766;51.380;13.762;2022-11-06T17:02:47;13.02;;;9.55;;
27265;SDS011;14766;51.380;13.762;2022-11-06T17:05:20;12.40;;;9.23;;
27265;SDS011;14766;51.380;13.762;2022-11-06T17:08:36;14.00;;;9.07;;
27265;SDS011;14766;51.380;13.762;2022-11-06T17:10:46;13.95;;;9.50;;
27265;SDS011;14766;51.380;13.762;2022-11-06T17:13:31;13.90;;;9.65;;
27265;SDS011;14766;51.380;13.762;2022-11-06T17:16:00;14.00;;;9.55;;
27265;SDS011;14766;51.380;13.762;2022-11-06T17:18:29;14.25;;;10.00;;
27265;SDS011;14766;51.380;13.762;2022-11-06T17:20:58;14.23;;;9.57;;
27265;SDS011;14766;51.380;13.762;2022-11-06T17:23:27;13.23;;;9.77;;
27265;SDS011;14766;51.380;13.762;2022-11-06T17:25:56;11.55;;;8.45;;
27265;SDS011;14766;51.380;13.762;2022-11-06T17:28:32;13.77;;;9.65;;
27265;SDS011;14766;51.380;13.762;2022-11-06T17:31:00;13.00;;;8.85;;
27265;SDS011;14766;51.380;13.762;2022-11-06T17:33:27;13.55;;;9.40;;
27265;SDS011;14766;51.380;13.762;2022-11-06T17:35:53;12.50;;;9.00;;
27265;SDS011;14766;51.380;13.762;2022-11-06T17:38:21;13.63;;;8.95;;
27265;SDS011;14766;51.380;13.762;2022-11-06T17:40:48;13.07;;;9.55;;
27265;SDS011;14766;51.380;13.762;2022-11-06T17:43:15;13.77;;;10.13;;
27265;SDS011;14766;51.380;13.762;2022-11-06T17:45:43;12.65;;;9.63;;
27265;SDS011;14766;51.380;13.762;2022-11-06T17:48:17;12.75;;;9.68;;
27265;SDS011;14766;51.380;13.762;2022-11-06T17:50:46;13.80;;;9.25;;
27265;SDS011;14766;51.380;13.762;2022-11-06T17:53:41;14.88;;;10.10;;
27265;SDS011;14766;51.380;13.762;2022-11-06T17:56:08;15.07;;;10.45;;
27265;SDS011;14766;51.380;13.762;2022-11-06T17:58:34;13.98;;;9.63;;
27265;SDS011;14766;51.380;13.762;2022-11-06T18:01:05;13.95;;;9.57;;
27265;SDS011;14766;51.380;13.762;2022-11-06T18:03:36;14.80;;;10.23;;
27265;SDS011;14766;51.380;13.762;2022-11-06T18:06:10;14.10;;;9.13;;
27265;SDS011;14766;51.380;13.762;2022-11-06T18:08:38;12.95;;;9.23;;
27265;SDS011;14766;51.380;13.762;2022-11-06T18:11:06;13.77;;;9.63;;
27265;SDS011;14766;51.380;13.762;2022-11-06T18:13:35;13.48;;;9.40;;
27265;SDS011;14766;51.380;13.762;2022-11-06T18:16:03;12.48;;;8.68;;
27265;SDS011;14766;51.380;13.762;2022-11-06T18:18:39;15.57;;;9.43;;
27265;SDS011;14766;51.380;13.762;2022-11-06T18:21:06;13.68;;;9.68;;
27265;SDS011;14766;51.380;13.762;2022-11-06T18:23:34;13.38;;;9.40;;
27265;SDS011;14766;51.380;13.762;2022-11-06T18:26:03;15.18;;;9.85;;
27265;SDS011;14766;51.380;13.762;2022-11-06T18:28:31;14.07;;;9.57;;
27265;SDS011;14766;51.380;13.762;2022-11-06T18:30:59;12.40;;;9.40;;
27265;SDS011;14766;51.380;13.762;2022-11-06T18:33:27;14.07;;;9.88;;
27265;SDS011;14766;51.380;13.762;2022-11-06T18:35:59;15.38;;;10.40;;
27265;SDS011;14766;51.380;13.762;2022-11-06T18:38:27;15.15;;;10.57;;
27265;SDS011;14766;51.380;13.762;2022-11-06T18:40:54;15.90;;;10.50;;
27265;SDS011;14766;51.380;13.762;2022-11-06T18:43:22;17.83;;;11.45;;
27265;SDS011;14766;51.380;13.762;2022-11-06T18:45:51;17.25;;;12.40;;